createdAt,value
2023-01-23T00:01:18.974Z,6.55
2023-01-23T00:03:46.429Z,6.65
2023-01-23T00:06:16.266Z,6.15
2023-01-23T00:08:45.147Z,5.97
2023-01-23T00:11:18.776Z,6.38
2023-01-23T00:13:46.372Z,6.45
2023-01-23T00:16:16.944Z,5.95
2023-01-23T00:18:45.295Z,5.68
2023-01-23T00:21:16.142Z,5.70
2023-01-23T00:23:46.326Z,6.13
2023-01-23T00:26:17.064Z,5.80
2023-01-23T00:28:45.434Z,5.65
2023-01-23T00:31:22.138Z,5.30
2023-01-23T00:33:52.655Z,5.43
2023-01-23T00:36:20.109Z,5.50
2023-01-23T00:38:47.405Z,5.63
2023-01-23T00:41:14.803Z,5.38
2023-01-23T00:43:42.529Z,4.93
2023-01-23T00:46:09.856Z,5.07
2023-01-23T00:48:37.175Z,5.47
2023-01-23T00:51:05.102Z,5.30
2023-01-23T00:53:32.432Z,5.28
2023-01-23T00:55:59.766Z,4.80
2023-01-23T00:58:27.030Z,4.80
2023-01-23T01:00:54.293Z,4.97
2023-01-23T01:03:21.659Z,5.22
2023-01-23T01:05:48.982Z,4.80
2023-01-23T01:08:16.250Z,4.30
2023-01-23T01:10:43.576Z,4.30
2023-01-23T01:13:11.938Z,4.53
2023-01-23T01:15:39.468Z,4.45
2023-01-23T01:18:06.785Z,4.30
2023-01-23T01:20:34.121Z,4.47
2023-01-23T01:23:01.570Z,4.18
2023-01-23T01:25:30.392Z,4.80
2023-01-23T01:27:57.723Z,4.32
2023-01-23T01:30:29.108Z,4.47
2023-01-23T01:32:57.122Z,4.47
2023-01-23T01:35:24.732Z,4.13
2023-01-23T01:37:52.305Z,4.43
2023-01-23T01:40:26.296Z,4.38
2023-01-23T01:42:58.764Z,4.20
2023-01-23T01:46:03.523Z,4.32
2023-01-23T01:49:07.728Z,4.55
2023-01-23T01:51:39.197Z,3.85
2023-01-23T01:54:31.245Z,4.15
2023-01-23T01:57:24.051Z,4.13
2023-01-23T02:00:15.664Z,4.28
2023-01-23T02:02:49.510Z,3.83
2023-01-23T02:05:21.448Z,3.70
2023-01-23T02:08:13.256Z,4.03
2023-01-23T02:10:41.156Z,4.20
2023-01-23T02:13:28.337Z,3.67
2023-01-23T02:15:56.499Z,3.88
2023-01-23T02:18:24.361Z,3.55
2023-01-23T02:20:53.522Z,3.72
2023-01-23T02:23:20.786Z,3.47
2023-01-23T02:26:11.352Z,3.67
2023-01-23T02:28:53.520Z,3.33
2023-01-23T02:31:21.146Z,3.20
2023-01-23T02:33:53.757Z,3.40
2023-01-23T02:36:27.566Z,3.38
2023-01-23T02:38:59.086Z,3.20
2023-01-23T02:41:38.729Z,3.55
2023-01-23T02:44:17.382Z,3.25
2023-01-23T02:46:44.869Z,3.30
2023-01-23T02:49:12.646Z,3.20
2023-01-23T02:51:39.991Z,3.33
2023-01-23T02:54:07.329Z,3.00
2023-01-23T02:56:34.639Z,3.28
2023-01-23T02:59:20.355Z,2.97
2023-01-23T03:01:48.161Z,3.22
2023-01-23T03:04:15.642Z,3.00
2023-01-23T03:06:43.575Z,3.10
2023-01-23T03:09:13.671Z,2.83
2023-01-23T03:11:44.083Z,3.10
2023-01-23T03:14:19.162Z,3.35
2023-01-23T03:16:51.314Z,3.22
2023-01-23T03:19:23.995Z,3.30
2023-01-23T03:21:52.312Z,3.00
2023-01-23T03:24:20.993Z,3.10
2023-01-23T03:26:49.555Z,3.28
2023-01-23T03:29:38.911Z,3.00
2023-01-23T03:32:07.271Z,3.35
2023-01-23T03:34:34.818Z,3.20
2023-01-23T03:37:03.365Z,3.30
2023-01-23T03:39:49.476Z,3.25
2023-01-23T03:42:17.295Z,3.33
2023-01-23T03:44:44.719Z,3.30
2023-01-23T03:47:12.081Z,3.10
2023-01-23T03:49:39.363Z,3.17
2023-01-23T03:52:06.717Z,3.38
2023-01-23T03:54:34.102Z,3.38
2023-01-23T03:57:01.355Z,3.22
2023-01-23T03:59:28.773Z,3.22
2023-01-23T04:01:58.005Z,3.17
2023-01-23T04:04:25.352Z,2.60
2023-01-23T04:06:52.704Z,3.42
2023-01-23T04:09:20.141Z,2.90
2023-01-23T04:11:47.436Z,3.20
2023-01-23T04:14:14.726Z,2.92
2023-01-23T04:16:42.053Z,3.08
2023-01-23T04:19:09.417Z,2.90
2023-01-23T04:21:36.743Z,3.17
2023-01-23T04:24:04.202Z,3.10
2023-01-23T04:26:31.549Z,2.90
2023-01-23T04:28:58.823Z,3.17
2023-01-23T04:31:26.258Z,3.08
2023-01-23T04:33:53.629Z,3.20
2023-01-23T04:36:20.934Z,2.80
2023-01-23T04:38:48.190Z,3.03
2023-01-23T04:41:24.306Z,3.00
2023-01-23T04:43:51.634Z,3.20
2023-01-23T04:46:18.979Z,3.10
2023-01-23T04:48:48.764Z,3.00
2023-01-23T04:51:16.309Z,2.90
2023-01-23T04:53:43.558Z,3.03
2023-01-23T04:56:10.815Z,2.95
2023-01-23T04:58:38.138Z,3.13
2023-01-23T05:01:07.695Z,2.97
2023-01-23T05:03:35.491Z,3.00
2023-01-23T05:06:02.878Z,3.30
2023-01-23T05:08:30.149Z,2.97
2023-01-23T05:10:57.443Z,3.15
2023-01-23T05:13:24.698Z,3.20
2023-01-23T05:15:52.164Z,3.00
2023-01-23T05:18:19.713Z,3.35
2023-01-23T05:20:47.005Z,3.78
2023-01-23T05:23:14.336Z,3.20
2023-01-23T05:25:41.671Z,3.45
2023-01-23T05:28:11.535Z,3.60
2023-01-23T05:30:39.268Z,3.60
2023-01-23T05:33:06.603Z,3.53
2023-01-23T05:35:33.953Z,3.30
2023-01-23T05:38:01.549Z,3.75
2023-01-23T05:40:29.025Z,3.47
2023-01-23T05:42:56.328Z,3.47
2023-01-23T05:45:23.757Z,3.83
2023-01-23T05:47:51.170Z,3.95
2023-01-23T05:50:20.475Z,3.50
2023-01-23T05:52:47.896Z,3.22
2023-01-23T05:55:15.539Z,3.72
2023-01-23T05:57:42.985Z,3.40
2023-01-23T06:00:14.114Z,3.55
2023-01-23T06:02:41.607Z,3.70
2023-01-23T06:05:10.580Z,3.17
2023-01-23T06:07:37.916Z,3.53
2023-01-23T06:10:09.611Z,3.20
2023-01-23T06:12:37.652Z,3.05
2023-01-23T06:15:06.342Z,3.10
2023-01-23T06:17:33.869Z,3.58
2023-01-23T06:20:01.214Z,3.20
2023-01-23T06:22:31.262Z,3.50
2023-01-23T06:24:58.960Z,3.30
2023-01-23T06:27:26.226Z,3.40
2023-01-23T06:29:53.567Z,3.47
2023-01-23T06:32:21.050Z,3.72
2023-01-23T06:34:48.289Z,3.70
2023-01-23T06:37:15.779Z,3.25
2023-01-23T06:39:43.104Z,3.58
2023-01-23T06:42:10.780Z,3.60
2023-01-23T06:44:38.562Z,3.50
2023-01-23T06:47:06.276Z,3.67
2023-01-23T06:49:33.671Z,3.55
2023-01-23T06:52:01.015Z,3.92
2023-01-23T06:54:28.312Z,3.88
2023-01-23T06:56:55.732Z,3.80
2023-01-23T06:59:23.003Z,3.90
2023-01-23T07:01:50.345Z,3.88
2023-01-23T07:04:17.864Z,4.07
2023-01-23T07:06:45.196Z,3.90
2023-01-23T07:09:12.671Z,3.75
2023-01-23T07:11:40.453Z,3.88
2023-01-23T07:14:08.013Z,5.40
2023-01-23T07:16:36.276Z,7.28
2023-01-23T07:19:05.385Z,6.55
2023-01-23T07:21:33.451Z,5.95
2023-01-23T07:24:00.772Z,6.85
2023-01-23T07:26:28.155Z,6.10
2023-01-23T07:28:55.625Z,6.40
2023-01-23T07:31:23.169Z,6.30
2023-01-23T07:33:50.491Z,6.35
2023-01-23T07:36:18.501Z,6.20
2023-01-23T07:38:45.891Z,5.78
2023-01-23T07:41:13.813Z,5.43
2023-01-23T07:43:41.108Z,6.10
2023-01-23T07:46:09.685Z,6.22
2023-01-23T07:48:37.779Z,5.40
2023-01-23T07:51:05.699Z,7.15
2023-01-23T07:53:34.791Z,5.90
2023-01-23T07:56:06.180Z,5.72
2023-01-23T07:58:33.735Z,6.72
2023-01-23T08:01:06.889Z,6.97
2023-01-23T08:03:34.162Z,6.45
2023-01-23T08:06:01.485Z,6.88
2023-01-23T08:08:31.255Z,7.53
2023-01-23T08:10:58.552Z,7.07
2023-01-23T08:13:25.903Z,7.25
2023-01-23T08:15:54.667Z,6.40
2023-01-23T08:18:22.079Z,6.72
2023-01-23T08:20:56.824Z,6.70
2023-01-23T08:25:57.241Z,7.10
2023-01-23T08:28:25.368Z,6.05
2023-01-23T08:30:53.030Z,6.72
2023-01-23T08:33:21.467Z,5.88
2023-01-23T08:35:54.170Z,6.45
2023-01-23T08:38:22.072Z,6.13
2023-01-23T08:40:51.224Z,6.22
2023-01-23T08:43:20.887Z,5.70
2023-01-23T08:45:53.575Z,6.07
2023-01-23T08:48:23.140Z,6.25
2023-01-23T08:50:51.685Z,5.40
2023-01-23T08:53:19.064Z,5.45
2023-01-23T08:55:46.312Z,6.25
2023-01-23T08:58:13.624Z,5.22
2023-01-23T09:00:41.964Z,5.55
2023-01-23T09:03:11.422Z,5.30
2023-01-23T09:05:39.200Z,5.68
2023-01-23T09:08:06.506Z,5.50
2023-01-23T09:10:33.826Z,5.45
2023-01-23T09:13:01.093Z,5.72
2023-01-23T09:15:28.546Z,5.38
2023-01-23T09:17:55.798Z,5.45
2023-01-23T09:20:25.868Z,5.32
2023-01-23T09:22:53.701Z,5.57
2023-01-23T09:25:21.339Z,7.28
2023-01-23T09:27:48.641Z,6.45
2023-01-23T09:30:16.191Z,6.25
2023-01-23T09:32:43.431Z,5.50
2023-01-23T09:35:10.720Z,6.45
2023-01-23T09:37:59.516Z,6.80
2023-01-23T09:40:47.187Z,5.75
2023-01-23T09:43:25.008Z,5.90
2023-01-23T09:46:11.121Z,5.63
2023-01-23T09:48:45.928Z,5.43
2023-01-23T09:51:37.242Z,5.70
2023-01-23T09:54:26.326Z,5.18
2023-01-23T09:56:55.470Z,5.53
2023-01-23T09:59:58.847Z,5.25
2023-01-23T10:02:29.043Z,4.80
2023-01-23T10:04:58.394Z,5.28
2023-01-23T10:07:45.197Z,5.70
2023-01-23T10:10:24.938Z,5.47
2023-01-23T10:13:09.374Z,4.97
2023-01-23T10:15:59.754Z,4.88
2023-01-23T10:19:02.792Z,4.38
2023-01-23T10:21:37.570Z,4.60
2023-01-23T10:24:22.948Z,4.55
2023-01-23T10:26:51.038Z,5.47
2023-01-23T10:29:29.821Z,4.72
2023-01-23T10:32:01.471Z,4.90
2023-01-23T10:34:37.803Z,4.40
2023-01-23T10:37:21.619Z,4.70
2023-01-23T10:39:51.523Z,4.85
2023-01-23T10:42:23.884Z,4.50
2023-01-23T10:44:51.397Z,4.32
2023-01-23T10:47:42.880Z,4.63
2023-01-23T10:50:11.568Z,4.55
2023-01-23T10:52:48.539Z,4.68
2023-01-23T10:55:31.221Z,4.43
2023-01-23T10:58:03.130Z,4.55
2023-01-23T11:00:45.988Z,4.13
2023-01-23T11:03:28.759Z,5.05
2023-01-23T11:06:00.397Z,5.00
2023-01-23T11:08:32.262Z,4.60
2023-01-23T11:11:20.035Z,4.78
2023-01-23T11:13:50.687Z,4.90
2023-01-23T11:16:24.882Z,4.97
2023-01-23T11:19:08.596Z,4.55
2023-01-23T11:21:38.120Z,4.70
2023-01-23T11:24:39.092Z,4.45
2023-01-23T11:27:20.454Z,4.70
2023-01-23T11:29:59.864Z,4.50
2023-01-23T11:32:33.317Z,4.82
2023-01-23T11:35:18.135Z,4.43
2023-01-23T11:37:45.481Z,4.03
2023-01-23T11:40:20.416Z,4.30
2023-01-23T11:42:48.552Z,4.40
2023-01-23T11:45:32.117Z,3.88
2023-01-23T11:48:24.629Z,4.43
2023-01-23T11:51:11.674Z,5.43
2023-01-23T11:53:43.543Z,4.90
2023-01-23T11:56:28.690Z,4.35
2023-01-23T11:58:58.924Z,4.32
2023-01-23T12:01:58.433Z,4.50
2023-01-23T12:05:17.606Z,5.05
2023-01-23T12:08:05.098Z,4.78
2023-01-23T12:10:52.971Z,4.40
2023-01-23T12:13:38.772Z,4.80
2023-01-23T12:16:11.637Z,4.57
2023-01-23T12:19:06.182Z,4.55
2023-01-23T12:21:54.835Z,4.60
2023-01-23T12:24:51.070Z,4.50
2023-01-23T12:27:34.372Z,4.57
2023-01-23T12:30:13.661Z,4.40
2023-01-23T12:32:43.778Z,4.22
2023-01-23T12:35:41.535Z,3.97
2023-01-23T12:38:24.465Z,3.90
2023-01-23T12:40:57.772Z,4.10
2023-01-23T12:43:48.454Z,3.60
2023-01-23T12:46:24.595Z,3.40
2023-01-23T12:49:21.152Z,3.10
2023-01-23T12:51:55.242Z,2.72
2023-01-23T12:54:49.787Z,3.30
2023-01-23T12:57:52.374Z,3.10
2023-01-23T13:01:17.984Z,3.35
2023-01-23T13:03:57.833Z,3.97
2023-01-23T13:07:03.381Z,3.70
2023-01-23T13:09:56.367Z,3.53
2023-01-23T13:12:26.351Z,3.10
2023-01-23T13:15:30.967Z,3.15
2023-01-23T13:18:03.515Z,3.05
2023-01-23T13:21:17.188Z,3.15
2023-01-23T13:23:45.113Z,2.90
2023-01-23T13:26:19.641Z,3.83
2023-01-23T13:28:55.688Z,2.70
2023-01-23T13:31:46.901Z,3.28
2023-01-23T13:34:17.533Z,2.80
2023-01-23T13:36:46.978Z,3.40
2023-01-23T13:39:16.997Z,3.03
2023-01-23T13:41:48.916Z,3.08
2023-01-23T13:44:27.131Z,3.08
2023-01-23T14:25:18.942Z,3.97
2023-01-23T14:30:28.241Z,4.05
2023-01-23T14:32:56.160Z,3.45
2023-01-23T14:35:26.622Z,3.55
2023-01-23T14:37:56.700Z,3.10
2023-01-23T14:40:28.348Z,3.40
2023-01-23T14:43:07.839Z,3.53
2023-01-23T14:45:37.008Z,3.22
2023-01-23T14:50:10.800Z,3.00
2023-01-23T14:52:38.280Z,3.50
2023-01-23T14:55:32.894Z,3.13
2023-01-23T14:58:01.461Z,3.30
2023-01-23T15:00:29.485Z,3.47
2023-01-23T15:02:56.835Z,3.35
2023-01-23T15:05:29.218Z,3.97
2023-01-23T15:08:04.211Z,2.97
2023-01-23T15:10:45.014Z,2.80
2023-01-23T15:13:25.521Z,2.95
2023-01-23T15:16:20.656Z,2.83
2023-01-23T15:19:12.627Z,2.92
2023-01-23T15:21:41.523Z,2.75
2023-01-23T15:24:14.752Z,2.60
2023-01-23T15:26:53.991Z,2.30
2023-01-23T15:29:21.733Z,2.50
2023-01-23T15:31:54.546Z,2.78
2023-01-23T15:34:33.789Z,2.58
2023-01-23T15:37:13.317Z,2.30
2023-01-23T15:39:46.684Z,2.75
2023-01-23T15:42:14.084Z,2.75
2023-01-23T15:44:42.919Z,3.08
2023-01-23T15:47:10.785Z,3.30
2023-01-23T15:49:39.847Z,3.05
2023-01-23T15:52:29.421Z,2.63
2023-01-23T15:55:04.664Z,2.65
2023-01-23T15:57:32.055Z,2.90
2023-01-23T16:00:00.302Z,2.80
2023-01-23T16:02:33.185Z,2.92
2023-01-23T16:05:01.964Z,2.70
2023-01-23T16:07:35.272Z,2.70
2023-01-23T16:10:19.389Z,2.67
2023-01-23T16:12:48.885Z,3.10
2023-01-23T16:15:27.134Z,3.00
2023-01-23T16:17:55.165Z,2.92
2023-01-23T16:20:29.482Z,2.63
2023-01-23T16:23:08.509Z,2.67
2023-01-23T16:25:44.829Z,2.72
2023-01-23T16:28:24.157Z,2.88
2023-01-23T16:30:52.377Z,2.60
2023-01-23T16:33:20.488Z,2.83
2023-01-23T16:35:49.679Z,2.47
2023-01-23T16:38:26.450Z,2.60
2023-01-23T16:40:55.006Z,2.70
2023-01-23T16:43:22.820Z,2.80
2023-01-23T16:45:53.196Z,2.63
2023-01-23T16:48:27.653Z,2.67
2023-01-23T16:51:04.723Z,2.70
2023-01-23T16:53:43.883Z,2.78
2023-01-23T16:56:24.657Z,2.85
2023-01-23T16:58:52.197Z,2.70
2023-01-23T17:01:22.872Z,2.83
2023-01-23T17:03:59.386Z,2.83
2023-01-23T17:06:26.960Z,2.65
2023-01-23T17:08:54.332Z,3.00
2023-01-23T17:11:26.809Z,2.83
2023-01-23T17:13:59.268Z,2.70
2023-01-23T17:16:28.277Z,2.90
2023-01-23T17:18:59.478Z,3.10
2023-01-23T17:21:33.226Z,3.17
2023-01-23T17:24:00.571Z,3.30
2023-01-23T17:26:28.002Z,3.20
2023-01-23T17:28:55.509Z,3.20
2023-01-23T17:31:28.519Z,3.20
2023-01-23T17:33:55.993Z,3.60
2023-01-23T17:36:25.135Z,3.75
2023-01-23T17:38:55.543Z,3.15
2023-01-23T17:41:22.807Z,3.33
2023-01-23T17:43:51.473Z,3.45
2023-01-23T17:46:26.864Z,3.63
2023-01-23T17:48:55.847Z,3.80
2023-01-23T17:51:24.967Z,3.53
2023-01-23T17:53:53.509Z,3.75
2023-01-23T17:56:20.828Z,3.80
2023-01-23T17:58:48.163Z,3.67
2023-01-23T18:01:24.623Z,3.50
2023-01-23T18:03:53.251Z,3.67
2023-01-23T18:06:20.643Z,3.75
2023-01-23T18:08:47.940Z,3.92
2023-01-23T18:11:24.912Z,3.80
2023-01-23T18:14:15.255Z,3.92
2023-01-23T18:16:45.526Z,3.72
2023-01-23T18:19:21.265Z,3.95
2023-01-23T18:21:54.274Z,4.20
2023-01-23T18:24:25.210Z,3.97
2023-01-23T18:27:06.112Z,4.22
2023-01-23T18:29:52.254Z,4.60
2023-01-23T18:32:44.143Z,4.05
2023-01-23T18:35:36.155Z,4.65
2023-01-23T18:38:30.945Z,4.07
2023-01-23T18:41:23.187Z,4.60
2023-01-23T18:44:11.521Z,4.43
2023-01-23T18:46:39.048Z,4.60
2023-01-23T18:49:06.570Z,4.60
2023-01-23T18:51:49.185Z,4.47
2023-01-23T18:54:22.672Z,4.55
2023-01-23T18:57:43.983Z,4.32
2023-01-23T19:00:16.142Z,3.88
2023-01-23T19:02:52.332Z,4.95
2023-01-23T19:05:26.856Z,4.43
2023-01-23T19:07:54.708Z,4.50
2023-01-23T19:10:26.489Z,5.50
2023-01-23T19:13:32.357Z,5.95
2023-01-23T19:16:14.911Z,6.95
2023-01-23T19:18:48.186Z,7.10
2023-01-23T19:21:24.175Z,6.63
2023-01-23T19:24:00.064Z,7.35
2023-01-23T19:26:29.697Z,8.00
2023-01-23T19:28:59.719Z,8.02
2023-01-23T19:31:30.204Z,7.70
2023-01-23T19:33:59.477Z,7.53
2023-01-23T19:36:28.583Z,8.38
2023-01-23T19:39:03.090Z,9.35
2023-01-23T19:41:43.521Z,8.98
2023-01-23T19:44:16.601Z,9.98
2023-01-23T19:46:44.585Z,9.27
2023-01-23T19:49:12.169Z,9.65
2023-01-23T19:51:42.655Z,10.38
2023-01-23T19:55:09.305Z,9.88
2023-01-23T19:57:36.569Z,9.75
2023-01-23T20:00:04.273Z,9.32
2023-01-23T20:02:31.518Z,9.13
2023-01-23T20:04:58.893Z,10.35
2023-01-23T20:07:26.157Z,9.82
2023-01-23T20:09:53.412Z,9.95
2023-01-23T20:12:20.639Z,9.68
2023-01-23T20:14:47.975Z,10.55
2023-01-23T20:17:15.319Z,11.75
2023-01-23T20:19:42.630Z,11.05
2023-01-23T20:22:10.014Z,11.50
2023-01-23T20:24:37.356Z,10.27
2023-01-23T20:27:04.849Z,10.32
2023-01-23T20:29:32.179Z,9.55
2023-01-23T20:31:59.540Z,10.25
2023-01-23T20:34:26.913Z,9.52
2023-01-23T20:36:54.301Z,8.95
2023-01-23T20:39:21.626Z,9.63
2023-01-23T20:41:48.949Z,9.63
2023-01-23T20:44:16.202Z,10.43
2023-01-23T20:46:43.508Z,9.48
2023-01-23T20:49:14.420Z,9.32
2023-01-23T20:51:41.719Z,9.40
2023-01-23T20:54:09.011Z,9.35
2023-01-23T20:56:36.393Z,9.88
2023-01-23T20:59:19.313Z,9.40
2023-01-23T21:02:05.947Z,9.80
2023-01-23T21:04:35.280Z,8.90
2023-01-23T21:07:03.630Z,9.60
2023-01-23T21:09:31.037Z,9.05
2023-01-23T21:11:58.950Z,9.05
2023-01-23T21:14:26.281Z,9.23
2023-01-23T21:16:53.717Z,8.98
2023-01-23T21:19:21.535Z,9.98
2023-01-23T21:21:48.816Z,9.65
2023-01-23T21:24:16.396Z,9.13
2023-01-23T21:26:43.845Z,9.38
2023-01-23T21:29:11.179Z,8.50
2023-01-23T21:31:39.436Z,9.40
2023-01-23T21:34:09.521Z,9.45
2023-01-23T21:36:37.623Z,9.55
2023-01-23T21:39:07.559Z,9.25
2023-01-23T21:41:35.940Z,11.43
2023-01-23T21:44:03.277Z,11.40
2023-01-23T21:46:30.618Z,10.75
2023-01-23T21:48:58.026Z,11.02
2023-01-23T21:51:27.745Z,11.32
2023-01-23T21:53:55.270Z,11.35
2023-01-23T21:56:23.864Z,10.82
2023-01-23T21:58:51.476Z,9.98
2023-01-23T22:01:35.246Z,9.07
2023-01-23T22:04:05.914Z,10.23
2023-01-23T22:06:34.404Z,9.65
2023-01-23T22:09:02.294Z,10.40
2023-01-23T22:11:29.619Z,9.15
2023-01-23T22:13:57.661Z,9.15
2023-01-23T22:16:35.992Z,9.20
2023-01-23T22:19:17.958Z,8.93
2023-01-23T22:21:46.538Z,8.68
2023-01-23T22:24:14.687Z,8.50
2023-01-23T22:26:42.278Z,8.65
2023-01-23T22:29:10.671Z,9.20
2023-01-23T22:31:38.103Z,8.77
2023-01-23T22:34:05.494Z,8.38
2023-01-23T22:36:32.829Z,8.52
2023-01-23T22:39:00.168Z,8.45
2023-01-23T22:41:28.595Z,7.82
2023-01-23T22:43:56.778Z,7.93
2023-01-23T22:46:24.303Z,8.23
2023-01-23T22:48:52.113Z,8.25
2023-01-23T22:51:24.172Z,8.93
2023-01-23T22:53:52.958Z,8.75
2023-01-23T22:56:21.028Z,8.82
2023-01-23T22:58:50.030Z,8.63
2023-01-23T23:01:18.141Z,8.30
2023-01-23T23:03:45.902Z,7.97
2023-01-23T23:06:15.631Z,7.78
2023-01-23T23:08:47.105Z,8.15
2023-01-23T23:11:17.349Z,8.02
2023-01-23T23:13:45.320Z,8.07
2023-01-23T23:16:18.923Z,8.10
2023-01-23T23:18:48.623Z,8.15
2023-01-23T23:21:19.981Z,8.18
2023-01-23T23:23:47.898Z,7.97
2023-01-23T23:26:16.095Z,8.70
2023-01-23T23:28:43.738Z,8.52
2023-01-23T23:31:11.314Z,8.30
2023-01-23T23:33:38.975Z,8.85
2023-01-23T23:36:06.949Z,7.88
2023-01-23T23:38:34.311Z,8.02
2023-01-23T23:41:08.891Z,8.20
2023-01-23T23:46:06.837Z,8.13
2023-01-23T23:48:35.951Z,8.02
2023-01-23T23:51:08.499Z,7.63
2023-01-23T23:53:36.536Z,8.25
2023-01-23T23:56:04.664Z,8.13
2023-01-23T23:58:32.668Z,8.48
